Time;durP1;ratioP1;P1;durP2;ratioP2;P2;SDS_P1;SDS_P2;PMS_P1;PMS_P2;Temp;Humidity;BMP_temperature;BMP_pressure;BME280_temperature;BME280_humidity;BME280_pressure;Samples;Min_cycle;Max_cycle;Signal;HPM_P1;HPM_P2
2021/05/06 11:08:27;;;;;;;9.05;2.72;;;;;;;17.52;64.49;100496.34;1801411;79;22710;-54
2021/05/06 11:12:43;;;;;;;7.45;2.47;;;;;;;17.49;65.48;100480.30;1799875;78;29155;-59
2021/05/06 11:28:25;;;;;;;9.08;2.60;;;;;;;17.70;65.62;100472.51;1790395;77;22857;-69
2021/05/06 11:30:55;;;;;;;5.90;2.60;;;;;;;17.64;65.57;100478.36;1764715;79;21202;-69
2021/05/06 11:33:26;;;;;;;6.83;3.12;;;;;;;17.58;65.79;100495.06;1769096;80;21484;-73
2021/05/06 11:36:11;;;;;;;11.18;2.52;;;;;;;17.55;66.15;100483.05;1767832;80;21104;-71
2021/05/06 11:38:53;;;;;;;8.78;2.60;;;;;;;17.51;66.47;100491.89;1768982;79;21059;-70
2021/05/06 11:41:32;;;;;;;6.85;2.42;;;;;;;17.50;66.41;100487.45;1770096;79;52108;-69
2021/05/06 11:44:04;;;;;;;5.40;2.27;;;;;;;17.47;66.45;100504.78;1722888;82;21085;-69
2021/05/06 11:46:39;;;;;;;7.47;2.58;;;;;;;17.46;66.26;100501.69;1720233;82;211611;-72
2021/05/06 11:49:13;;;;;;;5.70;2.55;;;;;;;17.40;66.46;100500.76;1669951;85;28262;-70
2021/05/06 11:51:42;;;;;;;7.20;2.52;;;;;;;17.39;67.00;100509.86;1664675;85;21269;-70
2021/05/06 11:54:18;;;;;;;15.10;2.62;;;;;;;17.41;67.10;100501.61;1677553;83;47844;-71
2021/05/06 11:57:00;;;;;;;12.00;2.20;;;;;;;17.43;67.20;100507.79;1671132;84;385305;-71
2021/05/06 11:59:32;;;;;;;8.78;2.85;;;;;;;17.46;67.41;100503.52;1657557;85;21375;-70
2021/05/06 12:02:07;;;;;;;10.28;2.65;;;;;;;17.45;67.55;100513.50;1669158;84;21679;-70
2021/05/06 12:04:37;;;;;;;13.35;2.83;;;;;;;17.42;67.64;100506.05;1628563;86;21244;-70
2021/05/06 12:07:16;;;;;;;18.57;2.95;;;;;;;17.40;67.97;100508.89;1606011;87;21312;-70
2021/05/06 12:09:44;;;;;;;13.10;2.80;;;;;;;17.42;67.90;100506.05;1615156;87;21609;-71
2021/05/06 12:12:28;;;;;;;11.03;2.90;;;;;;;17.39;67.96;100500.38;1642429;86;22577;-71
2021/05/06 12:15:01;;;;;;;16.90;2.80;;;;;;;17.36;68.03;100500.59;1638212;86;21330;-72
2021/05/06 12:17:32;;;;;;;8.98;2.70;;;;;;;17.28;68.46;100500.22;1617766;88;22085;-71
2021/05/06 12:20:00;;;;;;;9.43;2.33;;;;;;;17.17;68.73;100497.76;1620500;88;21502;-71
2021/05/06 12:22:28;;;;;;;8.80;2.50;;;;;;;17.08;69.36;100490.23;1628780;88;21215;-72
2021/05/06 12:24:56;;;;;;;10.08;2.75;;;;;;;17.10;69.54;100491.00;1630875;88;22347;-70
2021/05/06 12:27:29;;;;;;;12.30;2.87;;;;;;;17.08;69.73;100497.50;1630243;87;21213;-71
2021/05/06 12:30:02;;;;;;;13.25;2.72;;;;;;;17.06;70.01;100496.23;1617428;87;21239;-73
2021/05/06 12:32:33;;;;;;;14.43;2.80;;;;;;;17.01;70.29;100497.89;1617972;86;21243;-72
2021/05/06 12:35:03;;;;;;;9.70;2.50;;;;;;;16.98;70.45;100489.09;1617568;87;21241;-71
2021/05/06 12:37:55;;;;;;;8.50;3.33;;;;;;;16.96;70.66;100497.30;1602686;88;21236;-71
2021/05/06 12:40:28;;;;;;;5.65;2.20;;;;;;;17.00;70.70;100500.22;1615670;88;21221;-73
2021/05/06 12:42:57;;;;;;;8.80;2.70;;;;;;;17.07;70.80;100502.03;1607168;88;21206;-71
2021/05/06 12:45:30;;;;;;;7.70;2.60;;;;;;;17.16;70.49;100501.44;1570194;88;21699;-71
2021/05/06 12:47:56;;;;;;;7.67;2.22;;;;;;;17.17;70.55;100495.05;1617445;87;22607;-72
2021/05/06 12:50:26;;;;;;;10.45;2.67;;;;;;;17.20;70.81;100495.31;1619131;87;22142;-70
2021/05/06 12:52:56;;;;;;;11.00;2.52;;;;;;;17.21;70.86;100489.42;1616256;87;21274;-73
2021/05/06 12:55:30;;;;;;;9.18;2.40;;;;;;;17.21;70.84;100497.05;1619531;87;21665;-70
2021/05/06 12:58:18;;;;;;;16.12;2.67;;;;;;;17.22;70.93;100497.94;1617860;88;21246;-70
2021/05/06 13:00:58;;;;;;;19.48;2.92;;;;;;;17.21;71.09;100504.33;1618764;88;21193;-73
2021/05/06 13:03:44;;;;;;;7.67;2.58;;;;;;;17.20;71.26;100499.38;1616137;88;21182;-75
2021/05/06 13:06:15;;;;;;;9.40;2.55;;;;;;;17.22;71.26;100500.64;1619121;87;21824;-70
2021/05/06 13:08:46;;;;;;;9.73;2.72;;;;;;;17.23;71.19;100498.31;1616385;88;21232;-71
2021/05/06 13:11:19;;;;;;;8.85;2.77;;;;;;;17.19;71.34;100504.41;1592620;88;21252;-68
2021/05/06 13:16:40;;;;;;;9.80;2.80;;;;;;;17.15;72.03;100505.13;1822724;77;28632;-69
2021/05/06 13:19:11;;;;;;;7.15;2.55;;;;;;;17.06;72.43;100503.01;1792821;78;21031;-70
2021/05/06 13:21:49;;;;;;;6.25;2.67;;;;;;;17.02;72.56;100499.66;1761670;80;22677;-71
2021/05/06 13:24:19;;;;;;;8.10;2.90;;;;;;;16.98;72.89;100499.92;1738509;82;21518;-71
2021/05/06 13:26:47;;;;;;;10.15;2.77;;;;;;;16.97;73.02;100497.68;1759298;80;21047;-71
2021/05/06 13:29:18;;;;;;;10.13;2.80;;;;;;;16.98;73.21;100495.86;1727847;82;21214;-71
2021/05/06 13:31:48;;;;;;;11.08;2.77;;;;;;;16.98;73.21;100499.92;1764383;80;21178;-71
2021/05/06 13:34:20;;;;;;;11.60;3.35;;;;;;;17.00;73.26;100511.55;1741463;80;22760;-71
2021/05/06 13:37:02;;;;;;;13.18;3.00;;;;;;;16.97;73.42;100501.74;1718165;82;21139;-71
2021/05/06 13:39:34;;;;;;;12.35;3.15;;;;;;;16.96;73.62;100501.86;1725026;82;21189;-69
2021/05/06 13:42:03;;;;;;;8.78;2.90;;;;;;;16.92;73.87;100502.53;1740453;81;21204;-68
2021/05/06 13:44:34;;;;;;;16.02;2.90;;;;;;;16.96;74.04;100495.95;1741917;80;22566;-70
2021/05/06 13:47:06;;;;;;;8.28;2.62;;;;;;;17.08;73.89;100506.98;1732649;81;22230;-70
2021/05/06 13:49:36;;;;;;;10.93;3.47;;;;;;;17.18;73.60;100511.69;1766220;80;21196;-70
2021/05/06 13:52:05;;;;;;;9.25;2.75;;;;;;;17.29;73.42;100507.38;1758305;80;21182;-69
2021/05/06 13:54:33;;;;;;;10.00;2.83;;;;;;;17.43;73.01;100505.97;1733684;81;21208;-71
2021/05/06 13:57:02;;;;;;;15.23;3.37;;;;;;;17.57;72.46;100497.36;1737807;81;22138;-72
2021/05/06 13:59:30;;;;;;;8.98;3.15;;;;;;;17.64;72.33;100497.34;1737387;80;21302;-74
2021/05/06 14:01:59;;;;;;;8.33;2.83;;;;;;;17.73;72.33;100489.06;1722819;81;21222;-76
2021/05/06 14:04:28;;;;;;;10.08;2.62;;;;;;;17.82;71.74;100487.05;1716517;81;21233;-75
2021/05/06 14:06:57;;;;;;;9.30;3.00;;;;;;;17.87;71.37;100494.87;1753626;81;21217;-75
2021/05/06 14:09:26;;;;;;;10.50;3.45;;;;;;;17.90;71.33;100489.23;1746522;81;21230;-75
2021/05/06 14:11:54;;;;;;;9.93;3.00;;;;;;;17.94;71.33;100484.47;1745810;81;22400;-74
2021/05/06 14:14:22;;;;;;;9.65;3.67;;;;;;;17.96;71.22;100481.16;1741036;81;21185;-72
2021/05/06 14:16:50;;;;;;;10.03;3.72;;;;;;;17.93;71.33;100479.52;1741083;81;21216;-73
2021/05/06 14:19:20;;;;;;;10.93;3.27;;;;;;;17.93;71.64;100482.23;1746321;81;21198;-73
2021/05/06 14:21:48;;;;;;;7.67;3.00;;;;;;;17.94;71.39;100479.89;1744080;81;21226;-68
2021/05/06 14:24:17;;;;;;;7.25;2.47;;;;;;;17.87;71.16;100481.31;1738563;82;22523;-69
2021/05/06 14:26:48;;;;;;;9.33;2.80;;;;;;;17.79;71.37;100485.03;1737764;80;21206;-73
2021/05/06 14:29:16;;;;;;;13.38;3.33;;;;;;;17.70;71.90;100482.50;1733835;81;21210;-72
2021/05/06 14:31:44;;;;;;;9.98;2.70;;;;;;;17.61;72.49;100486.72;1732981;81;21194;-67
2021/05/06 14:34:12;;;;;;;13.32;3.72;;;;;;;17.54;72.91;100494.39;1761846;80;21216;-66
2021/05/06 14:36:40;;;;;;;9.60;2.95;;;;;;;17.47;73.17;100489.88;1760004;80;21222;-68
2021/05/06 14:39:08;;;;;;;8.25;2.90;;;;;;;17.43;73.52;100489.70;1767084;80;21218;-66
2021/05/06 14:41:40;;;;;;;6.60;2.70;;;;;;;17.39;73.60;100491.36;1763651;80;21210;-66
2021/05/06 14:44:09;;;;;;;10.53;3.00;;;;;;;17.31;73.64;100495.47;1742934;81;21209;-68
2021/05/06 14:46:38;;;;;;;13.00;3.02;;;;;;;17.22;73.98;100496.58;1741230;81;21205;-67
2021/05/06 14:49:12;;;;;;;5.87;2.65;;;;;;;17.14;74.26;100493.91;1740127;81;21233;-66
2021/05/06 14:51:44;;;;;;;13.53;3.10;;;;;;;17.08;74.50;100487.52;1722524;81;21233;-68
2021/05/06 14:54:12;;;;;;;9.58;2.83;;;;;;;17.01;74.65;100491.63;1757525;79;21205;-65
2021/05/06 14:56:40;;;;;;;11.40;3.15;;;;;;;16.96;74.66;100496.45;1764328;79;21220;-68
2021/05/06 14:59:08;;;;;;;10.53;3.35;;;;;;;16.95;74.74;100504.19;1762673;79;21170;-67
2021/05/06 15:01:37;;;;;;;8.50;3.25;;;;;;;16.93;74.77;100504.27;1733807;82;21529;-68
2021/05/06 15:04:05;;;;;;;14.55;3.17;;;;;;;16.88;74.98;100495.09;1727503;81;21254;-68
2021/05/06 15:06:34;;;;;;;15.23;3.30;;;;;;;16.80;75.39;100493.85;1725228;81;21668;-62
2021/05/06 15:09:05;;;;;;;9.03;2.67;;;;;;;16.73;75.78;100496.12;1751960;80;21221;-64
2021/05/06 15:11:35;;;;;;;6.65;3.40;;;;;;;16.71;75.95;100494.84;1752053;80;21101;-63
2021/05/06 15:14:04;;;;;;;10.82;3.75;;;;;;;16.78;75.95;100499.39;1758182;80;22077;-63
2021/05/06 15:16:33;;;;;;;11.85;3.30;;;;;;;16.83;75.79;100491.83;1750344;80;21201;-63
2021/05/06 15:19:02;;;;;;;9.20;2.70;;;;;;;16.83;75.60;100497.23;1810441;78;21173;-66
2021/05/06 15:21:32;;;;;;;10.32;3.10;;;;;;;16.80;75.64;100504.68;1746474;82;21514;-67
2021/05/06 15:23:59;;;;;;;11.18;3.10;;;;;;;16.77;75.80;100499.00;1804559;79;21216;-65
2021/05/06 15:26:27;;;;;;;15.70;3.08;;;;;;;16.71;75.93;100492.64;1804729;79;21196;-64
2021/05/06 15:28:55;;;;;;;11.65;3.40;;;;;;;16.65;76.18;100487.61;1785327;79;21520;-65
2021/05/06 15:31:22;;;;;;;13.95;3.45;;;;;;;16.57;76.47;100491.69;1779702;80;21181;-62
2021/05/06 15:33:50;;;;;;;17.75;3.17;;;;;;;16.48;76.96;100495.00;1782485;79;21116;-64
2021/05/06 15:36:18;;;;;;;13.45;3.62;;;;;;;16.40;77.27;100496.84;1749658;80;21409;-64
2021/05/06 15:38:46;;;;;;;17.27;5.12;;;;;;;16.39;77.35;100505.03;1782078;80;21984;-65
2021/05/06 15:41:15;;;;;;;22.70;5.10;;;;;;;16.40;77.03;100504.07;1781907;80;20999;-62
2021/05/06 15:43:44;;;;;;;15.55;4.80;;;;;;;16.47;76.66;100509.50;1781473;79;21153;-64
2021/05/06 15:46:16;;;;;;;20.80;5.25;;;;;;;16.50;76.50;100514.71;1780834;80;21165;-65
2021/05/06 15:48:46;;;;;;;20.37;4.60;;;;;;;16.54;76.26;100507.24;1781796;80;21223;-65
2021/05/06 15:51:14;;;;;;;18.52;5.58;;;;;;;16.55;76.08;100508.98;1781255;80;22361;-65
2021/05/06 15:53:43;;;;;;;25.50;4.85;;;;;;;16.59;75.72;100519.52;1781101;79;21202;-62
2021/05/06 15:56:12;;;;;;;18.30;4.70;;;;;;;16.65;75.67;100539.03;1781257;80;21177;-61
2021/05/06 15:58:40;;;;;;;19.77;4.42;;;;;;;16.68;75.62;100536.13;1781704;80;21237;-62
2021/05/06 16:01:08;;;;;;;41.98;6.62;;;;;;;16.70;75.65;100538.28;1778630;80;21197;-65
2021/05/06 16:03:49;;;;;;;20.62;4.62;;;;;;;16.74;75.10;100543.88;1781487;79;21583;-65
2021/05/06 16:06:17;;;;;;;29.27;4.62;;;;;;;16.75;75.41;100541.55;1806511;79;21204;-63
2021/05/06 16:08:46;;;;;;;11.30;4.03;;;;;;;16.74;75.50;100542.52;1777770;80;21043;-64
2021/05/06 16:11:15;;;;;;;16.50;4.22;;;;;;;16.72;75.62;100544.46;1813274;79;21197;-64
2021/05/06 16:13:43;;;;;;;14.13;4.08;;;;;;;16.71;75.72;100541.37;1777341;80;21193;-64
2021/05/06 16:16:12;;;;;;;27.73;5.15;;;;;;;16.71;75.72;100545.42;1808408;78;22636;-63
2021/05/06 16:18:45;;;;;;;22.85;4.85;;;;;;;16.69;75.56;100550.04;1766841;80;21218;-63
2021/05/06 16:21:10;;;;;;;38.63;6.45;;;;;;;16.67;75.26;100551.52;1765793;81;21264;-62
2021/05/06 16:23:39;;;;;;;31.57;6.12;;;;;;;16.64;74.10;100554.89;1755704;81;21720;-64
2021/05/06 16:26:08;;;;;;;53.23;5.92;;;;;;;16.64;72.22;100555.77;1735953;81;21185;-62
2021/05/06 16:28:38;;;;;;;32.35;4.92;;;;;;;16.65;71.63;100549.39;1735565;82;21449;-64
2021/05/06 16:31:06;;;;;;;33.40;5.50;;;;;;;16.66;70.37;100552.95;1735904;82;21229;-64
2021/05/06 16:33:37;;;;;;;36.30;4.95;;;;;;;16.67;69.62;100562.81;1755934;81;21155;-63
2021/05/06 16:38:48;;;;;;;20.35;4.62;;;;;;;16.68;66.58;100563.19;1766263;81;21217;-63
2021/05/06 16:41:11;;;;;;;20.50;4.20;;;;;;;16.70;65.96;100560.78;1732664;82;21871;-63
2021/05/06 16:46:23;;;;;;;55.55;5.62;;;;;;;16.76;64.37;100562.23;1766267;81;21237;-63
2021/05/06 16:48:51;;;;;;;37.08;4.58;;;;;;;16.77;64.91;100562.63;1766577;80;21044;-66
2021/05/06 16:51:19;;;;;;;48.78;4.92;;;;;;;16.75;65.13;100560.50;1766416;81;21210;-65
2021/05/06 16:53:50;;;;;;;33.58;4.53;;;;;;;16.73;65.07;100552.96;1766875;81;22335;-64
2021/05/06 16:56:17;;;;;;;25.77;5.25;;;;;;;16.71;64.80;100550.34;1765985;81;21868;-62
2021/05/06 16:58:46;;;;;;;52.08;6.03;;;;;;;16.70;64.12;100549.11;1766813;81;21182;-62
2021/05/06 17:01:13;;;;;;;34.90;4.83;;;;;;;16.67;64.28;100550.16;1766227;80;21209;-62
2021/05/06 17:03:41;;;;;;;33.38;5.58;;;;;;;16.64;64.56;100554.42;1765295;80;21218;-62
2021/05/06 17:06:09;;;;;;;39.27;5.70;;;;;;;16.60;64.92;100562.36;1766114;80;22951;-62
2021/05/06 17:08:36;;;;;;;13.55;5.05;;;;;;;16.55;64.51;100563.98;1766241;80;21184;-64
2021/05/06 17:11:04;;;;;;;16.60;6.10;;;;;;;16.52;63.91;100562.84;1760355;81;21196;-64
2021/05/06 17:13:33;;;;;;;9.38;3.72;;;;;;;16.50;63.69;100555.30;1735709;82;21162;-63
2021/05/06 17:16:03;;;;;;;12.75;3.08;;;;;;;16.50;63.25;100568.83;1738167;80;21337;-64
2021/05/06 17:18:33;;;;;;;7.10;3.02;;;;;;;16.50;62.96;100579.66;1743848;82;21256;-63
2021/05/06 17:21:01;;;;;;;10.88;2.50;;;;;;;16.50;62.38;100576.95;1744127;82;21247;-64
2021/05/06 17:23:29;;;;;;;5.53;2.83;;;;;;;16.49;62.24;100580.63;1753000;80;21472;-62
2021/05/06 17:25:57;;;;;;;9.70;2.92;;;;;;;16.50;61.93;100581.47;1775087;80;21219;-62
2021/05/06 17:28:25;;;;;;;11.33;3.27;;;;;;;16.50;61.76;100578.30;1774543;80;21158;-64
2021/05/06 17:30:55;;;;;;;14.53;3.75;;;;;;;16.51;61.37;100569.68;1775105;80;23555;-64
2021/05/06 17:33:24;;;;;;;16.23;3.77;;;;;;;16.49;60.81;100564.39;1765637;80;21226;-63
2021/05/06 17:35:52;;;;;;;13.18;3.50;;;;;;;16.48;60.88;100558.59;1744483;81;21321;-63
2021/05/06 17:38:20;;;;;;;10.75;3.55;;;;;;;16.48;60.84;100568.06;1744045;82;21625;-63
2021/05/06 17:40:48;;;;;;;11.83;3.45;;;;;;;16.46;61.02;100564.55;1744228;82;21221;-63
2021/05/06 17:43:16;;;;;;;13.60;3.30;;;;;;;16.43;61.16;100576.92;1744029;82;21380;-63
2021/05/06 17:45:44;;;;;;;12.37;3.37;;;;;;;16.39;61.63;100578.09;1743910;82;21215;-62
2021/05/06 17:48:13;;;;;;;16.32;4.17;;;;;;;16.33;61.88;100581.57;1744049;82;21232;-61
2021/05/06 17:50:42;;;;;;;15.03;7.37;;;;;;;16.30;62.06;100591.23;1744360;82;21226;-63
2021/05/06 17:53:10;;;;;;;16.12;5.67;;;;;;;16.25;62.09;100595.17;1743592;82;21203;-63
2021/05/06 17:55:39;;;;;;;12.58;4.50;;;;;;;16.21;62.00;100601.25;1744060;82;23565;-63
2021/05/06 17:58:06;;;;;;;12.75;3.72;;;;;;;16.20;62.02;100602.21;1750945;80;21201;-64
2021/05/06 18:00:35;;;;;;;9.40;3.55;;;;;;;16.17;61.93;100607.81;1774146;80;21771;-63
2021/05/06 18:03:04;;;;;;;13.38;4.47;;;;;;;16.16;61.86;100610.13;1773611;80;21213;-64
2021/05/06 18:05:32;;;;;;;25.40;5.67;;;;;;;16.16;61.97;100622.30;1739812;82;21151;-64
2021/05/06 18:07:59;;;;;;;16.35;5.25;;;;;;;16.14;62.00;100628.28;1721983;81;22244;-63
2021/05/06 18:10:46;;;;;;;16.52;4.72;;;;;;;16.12;62.02;100626.16;1760820;80;21207;-63
2021/05/06 18:13:00;;;;;;;18.35;4.75;;;;;;;16.10;61.86;100635.70;1759128;81;21210;-63
2021/05/06 18:15:28;;;;;;;20.20;5.97;;;;;;;16.08;61.83;100643.04;1761893;81;21493;-62
2021/05/06 18:17:57;;;;;;;25.75;6.80;;;;;;;16.03;61.94;100644.69;1753274;81;21227;-62
2021/05/06 18:20:25;;;;;;;20.20;6.42;;;;;;;15.99;62.10;100645.81;1751189;81;21382;-62
2021/05/06 18:22:53;;;;;;;27.48;7.80;;;;;;;15.96;62.21;100643.80;1750880;81;21226;-64
2021/05/06 18:25:20;;;;;;;29.42;8.08;;;;;;;15.93;62.31;100653.44;1735771;82;21215;-64
2021/05/06 18:28:11;;;;;;;17.25;5.72;;;;;;;15.89;62.51;100652.73;1736295;82;21223;-64
2021/05/06 18:30:21;;;;;;;25.92;7.30;;;;;;;15.85;62.51;100651.16;1727685;82;21191;-63
2021/05/06 18:32:49;;;;;;;19.00;9.65;;;;;;;15.84;62.56;100650.77;1734436;82;22224;-65
2021/05/06 18:35:18;;;;;;;29.82;14.07;;;;;;;15.81;62.65;100648.25;1741604;82;21241;-64
2021/05/06 18:37:46;;;;;;;20.92;14.60;;;;;;;15.82;62.68;100648.64;1802720;79;21166;-64
2021/05/06 18:40:16;;;;;;;30.90;11.20;;;;;;;15.82;62.79;100654.90;1802404;79;21186;-65
2021/05/06 18:42:45;;;;;;;18.70;7.97;;;;;;;15.83;62.75;100654.43;1766559;81;21176;-65
2021/05/06 18:45:13;;;;;;;18.80;6.97;;;;;;;15.82;62.70;100659.45;1766544;81;22164;-64
2021/05/06 18:47:40;;;;;;;18.45;7.67;;;;;;;15.80;62.68;100656.82;1766865;81;21226;-64
2021/05/06 18:50:11;;;;;;;28.62;8.58;;;;;;;15.80;62.69;100668.98;1766648;81;21194;-64
2021/05/06 18:52:38;;;;;;;20.27;7.42;;;;;;;15.79;62.83;100667.70;1766430;81;21206;-65
2021/05/06 18:55:07;;;;;;;21.60;6.47;;;;;;;15.78;62.88;100668.67;1766573;81;21192;-64
2021/05/06 18:57:35;;;;;;;22.07;6.40;;;;;;;15.74;62.79;100672.05;1766508;81;21417;-64
2021/05/06 19:00:07;;;;;;;24.87;6.50;;;;;;;15.71;62.73;100674.44;1766670;81;21205;-64
2021/05/06 19:02:37;;;;;;;27.67;5.95;;;;;;;15.69;62.59;100671.42;1755486;81;21175;-64
2021/05/06 19:05:06;;;;;;;23.50;6.33;;;;;;;15.67;62.71;100678.28;1736159;82;21194;-64
2021/05/06 19:07:34;;;;;;;18.40;5.72;;;;;;;15.65;62.65;100674.80;1736002;82;21146;-63
2021/05/06 19:10:03;;;;;;;17.23;5.25;;;;;;;15.63;62.63;100674.03;1736016;82;22257;-63
2021/05/06 19:12:31;;;;;;;15.25;4.87;;;;;;;15.61;62.56;100676.80;1735800;82;21195;-65
2021/05/06 19:15:00;;;;;;;14.30;4.62;;;;;;;15.59;62.54;100665.71;1736336;82;21198;-65
2021/05/06 19:17:28;;;;;;;20.82;4.55;;;;;;;15.57;62.53;100666.25;1725514;82;21221;-62
2021/05/06 19:19:56;;;;;;;16.00;4.97;;;;;;;15.57;62.52;100668.95;1752715;81;21176;-63
2021/05/06 19:22:27;;;;;;;21.73;5.03;;;;;;;15.53;62.55;100673.68;1721561;81;21367;-63
2021/05/06 19:24:55;;;;;;;20.80;5.67;;;;;;;15.52;62.69;100677.34;1767270;81;21211;-64
2021/05/06 19:27:24;;;;;;;12.85;5.08;;;;;;;15.50;62.90;100678.38;1768673;80;21227;-65
2021/05/06 19:29:52;;;;;;;12.07;5.12;;;;;;;15.46;62.97;100675.86;1768954;81;21227;-64
2021/05/06 19:32:20;;;;;;;19.50;5.72;;;;;;;15.42;63.07;100675.64;1770321;79;21184;-65
2021/05/06 19:34:49;;;;;;;19.23;5.22;;;;;;;15.38;63.21;100676.78;1785033;79;21387;-64
2021/05/06 19:37:17;;;;;;;17.60;5.62;;;;;;;15.34;63.34;100677.88;1784440;79;21161;-63
2021/05/06 19:39:49;;;;;;;16.80;5.85;;;;;;;15.31;63.47;100671.31;1785002;80;21166;-64
2021/05/06 19:42:17;;;;;;;25.82;6.70;;;;;;;15.27;63.64;100662.99;1784409;80;21166;-63
2021/05/06 19:44:51;;;;;;;18.90;6.83;;;;;;;15.23;63.81;100668.18;1785046;80;21056;-65
2021/05/06 19:47:17;;;;;;;30.88;7.65;;;;;;;15.20;63.98;100673.75;1770828;79;22371;-62
2021/05/06 19:49:45;;;;;;;25.95;7.60;;;;;;;15.15;64.08;100680.29;1768940;80;21185;-63
2021/05/06 19:52:13;;;;;;;22.13;6.70;;;;;;;15.13;64.17;100684.02;1768516;81;21663;-64
2021/05/06 19:54:41;;;;;;;23.92;7.30;;;;;;;15.10;64.17;100686.40;1782746;79;21178;-65
2021/05/06 19:57:10;;;;;;;18.17;6.40;;;;;;;15.07;64.26;100685.22;1761967;81;21197;-65
2021/05/06 19:59:40;;;;;;;20.00;7.12;;;;;;;15.05;64.32;100687.14;1800656;79;21213;-63
2021/05/06 20:02:08;;;;;;;22.60;8.05;;;;;;;15.04;64.46;100689.45;1762036;81;21627;-63
2021/05/06 20:04:37;;;;;;;19.02;7.58;;;;;;;15.05;64.58;100689.84;1800266;78;21180;-63
2021/05/06 20:07:05;;;;;;;19.98;7.10;;;;;;;15.07;65.09;100691.12;1762269;81;21203;-65
2021/05/06 20:09:37;;;;;;;20.45;6.72;;;;;;;15.08;64.99;100696.42;1800209;79;21162;-65
2021/05/06 20:12:05;;;;;;;21.60;7.20;;;;;;;15.06;65.23;100694.78;1762412;81;22102;-62
2021/05/06 20:14:39;;;;;;;14.30;6.15;;;;;;;15.04;65.23;100702.94;1800050;79;21137;-64
2021/05/06 20:17:19;;;;;;;18.25;6.62;;;;;;;14.98;65.44;100699.23;1759809;81;21179;-64
2021/05/06 20:19:46;;;;;;;16.87;6.83;;;;;;;14.97;65.62;100706.95;1739799;82;21198;-63
2021/05/06 20:22:14;;;;;;;21.48;7.67;;;;;;;14.97;65.76;100706.45;1789028;79;21250;-63
2021/05/06 20:24:43;;;;;;;24.87;7.12;;;;;;;14.98;65.81;100710.04;1748141;81;22109;-63
2021/05/06 20:27:10;;;;;;;16.48;6.70;;;;;;;14.95;65.75;100710.20;1766100;81;21284;-63
2021/05/06 20:29:39;;;;;;;20.60;6.92;;;;;;;14.95;66.35;100712.91;1766885;81;21173;-62
2021/05/06 20:32:09;;;;;;;15.20;6.65;;;;;;;14.94;66.70;100720.61;1766475;80;21206;-62
2021/05/06 20:34:39;;;;;;;18.30;7.33;;;;;;;14.89;67.03;100712.27;1766470;81;21194;-62
2021/05/06 20:37:07;;;;;;;14.33;7.67;;;;;;;14.84;67.26;100715.69;1766495;81;21293;-64
2021/05/06 20:39:35;;;;;;;17.67;6.53;;;;;;;14.81;67.60;100712.27;1766286;81;21170;-62
2021/05/06 20:42:07;;;;;;;19.42;6.50;;;;;;;14.77;68.13;100725.08;1766549;81;21166;-63
2021/05/06 20:44:48;;;;;;;13.72;5.87;;;;;;;14.75;68.76;100722.94;1766312;81;21178;-62
2021/05/06 20:47:12;;;;;;;23.87;9.00;;;;;;;14.72;69.86;100723.11;1764827;80;21178;-62
2021/05/06 20:49:45;;;;;;;33.03;8.53;;;;;;;14.72;69.04;100723.11;1767087;81;21364;-63
2021/05/06 20:52:19;;;;;;;23.22;10.68;;;;;;;14.71;68.50;100734.86;1766293;81;21918;-63
2021/05/06 20:54:49;;;;;;;25.82;10.43;;;;;;;14.70;68.15;100729.00;1760999;81;21183;-62
2021/05/06 20:57:19;;;;;;;23.15;7.55;;;;;;;14.68;67.81;100730.91;1704688;82;21502;-62
2021/05/06 20:59:49;;;;;;;20.35;7.12;;;;;;;14.68;68.22;100729.56;1725886;83;21210;-63
2021/05/06 21:02:18;;;;;;;22.73;8.23;;;;;;;14.65;69.05;100737.83;1725607;82;22119;-63
2021/05/06 21:04:49;;;;;;;27.70;8.53;;;;;;;14.64;69.03;100741.48;1725857;82;21178;-63
2021/05/06 21:07:17;;;;;;;20.23;9.65;;;;;;;14.65;68.86;100745.92;1725514;83;21659;-62
2021/05/06 21:09:45;;;;;;;30.05;10.82;;;;;;;14.66;68.99;100747.66;1725257;83;21214;-62
2021/05/06 21:12:14;;;;;;;20.40;9.28;;;;;;;14.67;69.07;100749.41;1725342;82;21210;-62
2021/05/06 21:14:44;;;;;;;19.85;7.20;;;;;;;14.68;69.37;100752.50;1725172;83;21218;-62
2021/05/06 21:17:12;;;;;;;20.02;9.10;;;;;;;14.68;69.84;100748.45;1725001;82;21246;-62
2021/05/06 21:19:42;;;;;;;24.07;8.88;;;;;;;14.67;69.45;100749.41;1725747;83;21214;-62
2021/05/06 21:22:10;;;;;;;11.50;5.90;;;;;;;14.68;69.69;100748.45;1725481;83;21255;-62
2021/05/06 21:24:38;;;;;;;37.88;8.78;;;;;;;14.68;70.33;100751.15;1711961;83;21186;-62
2021/05/06 21:27:07;;;;;;;44.98;8.43;;;;;;;14.66;70.47;100753.06;1720332;82;21368;-62
2021/05/06 21:29:35;;;;;;;18.40;7.17;;;;;;;14.56;69.11;100758.95;1714826;83;21154;-62
2021/05/06 21:32:05;;;;;;;19.92;8.08;;;;;;;14.45;70.33;100750.52;1715125;83;21762;-62
2021/05/06 21:34:36;;;;;;;17.10;7.10;;;;;;;14.41;70.78;100756.56;1769960;80;21194;-62
2021/05/06 21:37:04;;;;;;;21.48;7.37;;;;;;;14.35;70.01;100753.30;1770634;79;21229;-63
2021/05/06 21:39:34;;;;;;;12.98;6.25;;;;;;;14.25;69.45;100747.50;1770051;81;21206;-62
2021/05/06 21:42:04;;;;;;;11.48;5.90;;;;;;;14.14;69.35;100745.34;1770586;79;21190;-62
2021/05/06 21:44:31;;;;;;;16.32;5.00;;;;;;;14.06;69.70;100742.17;1770098;81;21723;-62
2021/05/06 21:47:05;;;;;;;15.30;6.47;;;;;;;14.02;69.92;100751.73;1770648;79;21275;-62
2021/05/06 21:49:36;;;;;;;15.40;5.67;;;;;;;13.98;70.31;100757.38;1770460;79;21134;-63
2021/05/06 21:52:07;;;;;;;13.80;6.03;;;;;;;13.94;70.46;100760.68;1770791;81;21493;-62
2021/05/06 21:54:36;;;;;;;17.60;5.85;;;;;;;13.91;70.65;100766.22;1791729;79;21122;-64
2021/05/06 21:57:05;;;;;;;12.37;4.58;;;;;;;13.89;70.66;100761.39;1767141;81;21166;-62
2021/05/06 21:59:33;;;;;;;14.33;5.00;;;;;;;13.86;70.39;100760.20;1739801;82;21234;-62
2021/05/06 22:02:02;;;;;;;16.35;5.58;;;;;;;13.86;70.77;100760.20;1739548;82;21219;-63
2021/05/06 22:04:30;;;;;;;10.53;3.98;;;;;;;13.90;70.87;100760.44;1720348;81;22042;-63
2021/05/06 22:06:58;;;;;;;9.85;4.05;;;;;;;13.89;70.83;100758.70;1770045;80;21206;-63
2021/05/06 22:09:29;;;;;;;13.55;4.55;;;;;;;13.92;70.96;100757.65;1770437;80;21214;-63
2021/05/06 22:11:55;;;;;;;9.30;3.58;;;;;;;13.95;71.10;100758.38;1770417;80;21224;-63
2021/05/06 22:14:23;;;;;;;6.37;3.42;;;;;;;14.01;70.88;100759.91;1790909;79;21214;-63
2021/05/06 22:16:51;;;;;;;6.62;3.35;;;;;;;14.04;70.87;100751.67;1754326;80;21262;-63
2021/05/06 22:19:19;;;;;;;9.23;3.87;;;;;;;14.11;70.78;100760.33;1751335;81;21203;-63
2021/05/06 22:21:47;;;;;;;9.40;3.42;;;;;;;14.14;70.64;100762.87;1754813;81;21613;-63
2021/05/06 22:24:19;;;;;;;9.85;3.50;;;;;;;14.12;70.61;100763.42;1754743;81;21177;-62
2021/05/06 22:26:46;;;;;;;8.18;3.33;;;;;;;14.10;70.72;100757.23;1723659;83;21221;-64
2021/05/06 22:29:14;;;;;;;11.45;3.90;;;;;;;14.10;70.80;100758.59;1754827;81;21815;-63
2021/05/06 22:31:42;;;;;;;8.78;3.30;;;;;;;14.08;70.85;100755.09;1725222;83;21227;-63
2021/05/06 22:34:10;;;;;;;8.10;3.30;;;;;;;14.07;70.93;100753.35;1744885;80;21221;-63
2021/05/06 22:36:39;;;;;;;8.40;3.65;;;;;;;14.07;70.98;100742.56;1785992;80;21224;-63
2021/05/06 22:39:07;;;;;;;17.80;3.92;;;;;;;14.08;71.03;100745.66;1786088;80;21173;-64
2021/05/06 22:41:37;;;;;;;7.95;3.72;;;;;;;14.04;71.05;100753.02;1785998;80;21797;-64
2021/05/06 22:44:06;;;;;;;13.43;3.50;;;;;;;14.02;71.31;100754.42;1786154;80;21212;-62
2021/05/06 22:46:34;;;;;;;14.93;4.05;;;;;;;14.00;71.31;100748.24;1785905;80;21224;-62
2021/05/06 22:49:03;;;;;;;9.18;3.52;;;;;;;13.98;71.44;100746.59;1786287;80;21225;-62
2021/05/06 22:51:32;;;;;;;5.58;3.20;;;;;;;13.96;71.63;100753.39;1785837;80;21432;-64
2021/05/06 22:54:01;;;;;;;10.05;2.90;;;;;;;13.95;71.96;100754.34;1770296;80;21339;-63
2021/05/06 22:56:29;;;;;;;7.42;3.10;;;;;;;13.96;71.99;100752.05;1754744;81;21193;-62
2021/05/06 22:58:57;;;;;;;10.30;3.92;;;;;;;13.95;72.10;100761.08;1755179;81;21181;-62
2021/05/06 23:01:25;;;;;;;10.28;3.90;;;;;;;13.94;72.24;100762.03;1754650;81;21197;-62